sensor_id;sensor_type;location;lat;lon;timestamp;P1;durP1;ratioP1;P2;durP2;ratioP2
80694;SDS011;70059;42.702;23.312;2023-08-08T00:01:01;2.58;;;2.38;;
80694;SDS011;70059;42.702;23.312;2023-08-08T00:03:27;2.88;;;2.67;;
80694;SDS011;70059;42.702;23.312;2023-08-08T00:05:53;2.90;;;2.70;;
80694;SDS011;70059;42.702;23.312;2023-08-08T00:08:18;3.80;;;3.47;;
80694;SDS011;70059;42.702;23.312;2023-08-08T00:10:44;3.65;;;3.22;;
80694;SDS011;70059;42.702;23.312;2023-08-08T00:13:10;3.88;;;3.60;;
80694;SDS011;70059;42.702;23.312;2023-08-08T00:15:36;4.45;;;4.03;;
80694;SDS011;70059;42.702;23.312;2023-08-08T00:18:01;4.10;;;3.80;;
80694;SDS011;70059;42.702;23.312;2023-08-08T00:20:27;5.70;;;5.30;;
80694;SDS011;70059;42.702;23.312;2023-08-08T00:22:53;6.43;;;5.93;;
80694;SDS011;70059;42.702;23.312;2023-08-08T00:25:19;1.83;;;1.70;;
80694;SDS011;70059;42.702;23.312;2023-08-08T00:27:44;2.95;;;2.00;;
80694;SDS011;70059;42.702;23.312;2023-08-08T00:30:11;2.22;;;1.77;;
80694;SDS011;70059;42.702;23.312;2023-08-08T00:32:40;2.85;;;2.08;;
80694;SDS011;70059;42.702;23.312;2023-08-08T00:35:06;2.28;;;2.08;;
80694;SDS011;70059;42.702;23.312;2023-08-08T00:37:32;1.92;;;1.83;;
80694;SDS011;70059;42.702;23.312;2023-08-08T00:39:58;3.58;;;2.08;;
80694;SDS011;70059;42.702;23.312;2023-08-08T00:42:24;3.63;;;2.40;;
80694;SDS011;70059;42.702;23.312;2023-08-08T00:44:49;2.30;;;2.10;;
80694;SDS011;70059;42.702;23.312;2023-08-08T00:47:15;3.60;;;1.90;;
80694;SDS011;70059;42.702;23.312;2023-08-08T00:49:41;3.88;;;1.98;;
80694;SDS011;70059;42.702;23.312;2023-08-08T00:52:08;2.17;;;1.83;;
80694;SDS011;70059;42.702;23.312;2023-08-08T00:54:34;2.40;;;2.20;;
80694;SDS011;70059;42.702;23.312;2023-08-08T00:57:00;3.80;;;2.50;;
80694;SDS011;70059;42.702;23.312;2023-08-08T00:59:26;3.15;;;2.85;;
80694;SDS011;70059;42.702;23.312;2023-08-08T01:01:52;3.22;;;2.83;;
80694;SDS011;70059;42.702;23.312;2023-08-08T01:04:18;3.70;;;2.67;;
80694;SDS011;70059;42.702;23.312;2023-08-08T01:09:48;3.17;;;2.90;;
80694;SDS011;70059;42.702;23.312;2023-08-08T01:12:23;2.85;;;2.65;;
80694;SDS011;70059;42.702;23.312;2023-08-08T01:14:50;2.80;;;2.60;;
80694;SDS011;70059;42.702;23.312;2023-08-08T01:17:16;3.33;;;2.88;;
80694;SDS011;70059;42.702;23.312;2023-08-08T01:19:43;3.20;;;3.00;;
80694;SDS011;70059;42.702;23.312;2023-08-08T01:22:12;6.18;;;5.63;;
80694;SDS011;70059;42.702;23.312;2023-08-08T01:24:45;6.30;;;5.90;;
80694;SDS011;70059;42.702;23.312;2023-08-08T01:27:10;7.63;;;7.13;;
80694;SDS011;70059;42.702;23.312;2023-08-08T01:29:36;6.85;;;6.45;;
80694;SDS011;70059;42.702;23.312;2023-08-08T01:32:02;8.27;;;5.90;;
80694;SDS011;70059;42.702;23.312;2023-08-08T01:34:28;5.10;;;4.70;;
80694;SDS011;70059;42.702;23.312;2023-08-08T01:36:55;5.10;;;4.80;;
80694;SDS011;70059;42.702;23.312;2023-08-08T01:39:29;5.40;;;5.00;;
80694;SDS011;70059;42.702;23.312;2023-08-08T01:44:23;5.30;;;4.90;;
80694;SDS011;70059;42.702;23.312;2023-08-08T01:46:50;5.00;;;4.60;;
80694;SDS011;70059;42.702;23.312;2023-08-08T01:49:17;5.28;;;4.88;;
80694;SDS011;70059;42.702;23.312;2023-08-08T01:51:42;5.30;;;4.80;;
80694;SDS011;70059;42.702;23.312;2023-08-08T01:54:08;5.25;;;4.93;;
80694;SDS011;70059;42.702;23.312;2023-08-08T01:56:34;5.70;;;5.10;;
80694;SDS011;70059;42.702;23.312;2023-08-08T01:58:59;5.32;;;4.82;;
80694;SDS011;70059;42.702;23.312;2023-08-08T02:01:26;4.97;;;4.68;;
80694;SDS011;70059;42.702;23.312;2023-08-08T02:03:51;5.07;;;4.70;;
80694;SDS011;70059;42.702;23.312;2023-08-08T02:06:17;5.20;;;4.80;;
80694;SDS011;70059;42.702;23.312;2023-08-08T02:08:45;5.70;;;5.30;;
80694;SDS011;70059;42.702;23.312;2023-08-08T02:11:11;5.20;;;4.80;;
80694;SDS011;70059;42.702;23.312;2023-08-08T02:13:36;5.70;;;5.30;;
80694;SDS011;70059;42.702;23.312;2023-08-08T02:16:02;5.80;;;5.40;;
80694;SDS011;70059;42.702;23.312;2023-08-08T02:18:28;6.05;;;5.47;;
80694;SDS011;70059;42.702;23.312;2023-08-08T02:20:53;6.68;;;6.18;;
80694;SDS011;70059;42.702;23.312;2023-08-08T02:23:19;6.07;;;5.57;;
80694;SDS011;70059;42.702;23.312;2023-08-08T02:25:45;6.72;;;6.13;;
80694;SDS011;70059;42.702;23.312;2023-08-08T02:28:10;6.40;;;5.80;;
80694;SDS011;70059;42.702;23.312;2023-08-08T02:30:37;6.18;;;5.68;;
80694;SDS011;70059;42.702;23.312;2023-08-08T02:33:03;6.97;;;6.47;;
80694;SDS011;70059;42.702;23.312;2023-08-08T02:35:29;7.70;;;6.93;;
80694;SDS011;70059;42.702;23.312;2023-08-08T02:37:55;7.78;;;7.15;;
80694;SDS011;70059;42.702;23.312;2023-08-08T02:40:20;7.57;;;6.97;;
80694;SDS011;70059;42.702;23.312;2023-08-08T02:42:48;7.72;;;6.97;;
80694;SDS011;70059;42.702;23.312;2023-08-08T02:45:14;7.60;;;7.00;;
80694;SDS011;70059;42.702;23.312;2023-08-08T02:47:40;7.35;;;6.85;;
80694;SDS011;70059;42.702;23.312;2023-08-08T02:50:06;7.60;;;7.07;;
80694;SDS011;70059;42.702;23.312;2023-08-08T02:52:31;9.50;;;7.10;;
80694;SDS011;70059;42.702;23.312;2023-08-08T02:54:57;8.07;;;7.47;;
80694;SDS011;70059;42.702;23.312;2023-08-08T02:57:23;8.90;;;8.27;;
80694;SDS011;70059;42.702;23.312;2023-08-08T02:59:48;9.23;;;8.55;;
80694;SDS011;70059;42.702;23.312;2023-08-08T03:02:14;9.63;;;8.93;;
80694;SDS011;70059;42.702;23.312;2023-08-08T03:04:40;9.23;;;8.43;;
80694;SDS011;70059;42.702;23.312;2023-08-08T03:07:05;9.55;;;8.85;;
80694;SDS011;70059;42.702;23.312;2023-08-08T03:09:31;9.20;;;8.60;;
80694;SDS011;70059;42.702;23.312;2023-08-08T03:11:57;8.90;;;8.20;;
80694;SDS011;70059;42.702;23.312;2023-08-08T03:14:22;10.43;;;9.45;;
80694;SDS011;70059;42.702;23.312;2023-08-08T03:16:48;8.85;;;8.25;;
80694;SDS011;70059;42.702;23.312;2023-08-08T03:19:14;8.48;;;7.70;;
80694;SDS011;70059;42.702;23.312;2023-08-08T03:21:39;9.27;;;8.60;;
80694;SDS011;70059;42.702;23.312;2023-08-08T03:24:05;10.13;;;9.27;;
80694;SDS011;70059;42.702;23.312;2023-08-08T03:26:30;9.70;;;8.90;;
80694;SDS011;70059;42.702;23.312;2023-08-08T03:28:56;10.35;;;9.35;;
80694;SDS011;70059;42.702;23.312;2023-08-08T03:31:22;10.07;;;9.38;;
80694;SDS011;70059;42.702;23.312;2023-08-08T03:33:48;10.13;;;9.20;;
80694;SDS011;70059;42.702;23.312;2023-08-08T03:36:14;9.98;;;9.27;;
80694;SDS011;70059;42.702;23.312;2023-08-08T03:38:40;10.25;;;9.35;;
80694;SDS011;70059;42.702;23.312;2023-08-08T03:41:09;9.65;;;8.85;;
80694;SDS011;70059;42.702;23.312;2023-08-08T03:43:35;10.00;;;9.30;;
80694;SDS011;70059;42.702;23.312;2023-08-08T03:46:00;9.80;;;9.10;;
80694;SDS011;70059;42.702;23.312;2023-08-08T03:48:26;10.93;;;10.13;;
80694;SDS011;70059;42.702;23.312;2023-08-08T03:50:52;11.07;;;10.18;;
80694;SDS011;70059;42.702;23.312;2023-08-08T03:53:17;10.77;;;9.98;;
80694;SDS011;70059;42.702;23.312;2023-08-08T03:55:43;10.85;;;9.75;;
80694;SDS011;70059;42.702;23.312;2023-08-08T03:58:09;10.68;;;9.60;;
80694;SDS011;70059;42.702;23.312;2023-08-08T04:00:34;10.82;;;10.02;;
80694;SDS011;70059;42.702;23.312;2023-08-08T04:03:00;11.27;;;10.38;;
80694;SDS011;70059;42.702;23.312;2023-08-08T04:05:25;11.73;;;10.63;;
80694;SDS011;70059;42.702;23.312;2023-08-08T04:07:51;11.20;;;10.35;;
80694;SDS011;70059;42.702;23.312;2023-08-08T04:10:17;10.95;;;10.13;;
80694;SDS011;70059;42.702;23.312;2023-08-08T04:12:42;13.02;;;11.73;;
80694;SDS011;70059;42.702;23.312;2023-08-08T04:15:08;11.02;;;10.07;;
80694;SDS011;70059;42.702;23.312;2023-08-08T04:17:34;11.05;;;10.07;;
80694;SDS011;70059;42.702;23.312;2023-08-08T04:20:00;12.13;;;10.95;;
80694;SDS011;70059;42.702;23.312;2023-08-08T04:22:26;12.15;;;11.05;;
80694;SDS011;70059;42.702;23.312;2023-08-08T04:24:52;10.55;;;9.75;;
80694;SDS011;70059;42.702;23.312;2023-08-08T04:27:17;11.50;;;10.60;;
80694;SDS011;70059;42.702;23.312;2023-08-08T04:29:43;11.85;;;10.82;;
80694;SDS011;70059;42.702;23.312;2023-08-08T04:32:09;11.90;;;10.90;;
80694;SDS011;70059;42.702;23.312;2023-08-08T04:34:34;18.27;;;16.58;;
80694;SDS011;70059;42.702;23.312;2023-08-08T04:37:00;11.57;;;10.48;;
80694;SDS011;70059;42.702;23.312;2023-08-08T04:39:25;12.50;;;11.50;;
80694;SDS011;70059;42.702;23.312;2023-08-08T04:41:51;12.40;;;11.15;;
80694;SDS011;70059;42.702;23.312;2023-08-08T04:44:17;11.68;;;10.70;;
80694;SDS011;70059;42.702;23.312;2023-08-08T04:46:42;11.50;;;10.70;;
80694;SDS011;70059;42.702;23.312;2023-08-08T04:49:08;11.98;;;10.93;;
80694;SDS011;70059;42.702;23.312;2023-08-08T04:51:34;12.48;;;11.45;;
80694;SDS011;70059;42.702;23.312;2023-08-08T04:53:59;11.50;;;10.40;;
80694;SDS011;70059;42.702;23.312;2023-08-08T04:56:25;12.07;;;11.18;;
80694;SDS011;70059;42.702;23.312;2023-08-08T04:58:51;12.15;;;10.98;;
80694;SDS011;70059;42.702;23.312;2023-08-08T05:01:16;11.80;;;10.77;;
80694;SDS011;70059;42.702;23.312;2023-08-08T05:03:45;12.13;;;11.02;;
80694;SDS011;70059;42.702;23.312;2023-08-08T05:06:11;12.27;;;11.00;;
80694;SDS011;70059;42.702;23.312;2023-08-08T05:08:37;12.60;;;11.57;;
80694;SDS011;70059;42.702;23.312;2023-08-08T05:11:02;11.32;;;10.30;;
80694;SDS011;70059;42.702;23.312;2023-08-08T05:13:28;11.88;;;10.68;;
80694;SDS011;70059;42.702;23.312;2023-08-08T05:15:54;11.38;;;10.57;;
80694;SDS011;70059;42.702;23.312;2023-08-08T05:18:19;11.07;;;10.18;;
80694;SDS011;70059;42.702;23.312;2023-08-08T05:20:45;12.35;;;11.40;;
80694;SDS011;70059;42.702;23.312;2023-08-08T05:23:11;12.48;;;11.38;;
80694;SDS011;70059;42.702;23.312;2023-08-08T05:25:36;11.43;;;10.52;;
80694;SDS011;70059;42.702;23.312;2023-08-08T05:28:02;12.20;;;10.95;;
80694;SDS011;70059;42.702;23.312;2023-08-08T05:30:28;11.60;;;10.70;;
80694;SDS011;70059;42.702;23.312;2023-08-08T05:32:54;11.20;;;10.30;;
80694;SDS011;70059;42.702;23.312;2023-08-08T05:35:19;10.90;;;10.20;;
80694;SDS011;70059;42.702;23.312;2023-08-08T05:37:45;13.10;;;11.05;;
80694;SDS011;70059;42.702;23.312;2023-08-08T05:40:10;12.50;;;10.90;;
80694;SDS011;70059;42.702;23.312;2023-08-08T05:42:39;11.90;;;10.90;;
80694;SDS011;70059;42.702;23.312;2023-08-08T05:45:05;11.70;;;10.80;;
80694;SDS011;70059;42.702;23.312;2023-08-08T05:47:31;10.38;;;9.65;;
80694;SDS011;70059;42.702;23.312;2023-08-08T05:49:57;11.02;;;10.10;;
80694;SDS011;70059;42.702;23.312;2023-08-08T05:52:23;11.77;;;10.60;;
80694;SDS011;70059;42.702;23.312;2023-08-08T05:54:49;10.77;;;9.88;;
80694;SDS011;70059;42.702;23.312;2023-08-08T05:57:14;11.43;;;10.52;;
80694;SDS011;70059;42.702;23.312;2023-08-08T05:59:40;11.30;;;10.55;;
80694;SDS011;70059;42.702;23.312;2023-08-08T06:02:06;12.25;;;10.73;;
80694;SDS011;70059;42.702;23.312;2023-08-08T06:04:31;11.35;;;10.55;;
80694;SDS011;70059;42.702;23.312;2023-08-08T06:06:57;11.45;;;10.38;;
80694;SDS011;70059;42.702;23.312;2023-08-08T06:09:24;11.43;;;10.25;;
80694;SDS011;70059;42.702;23.312;2023-08-08T06:11:50;10.70;;;10.00;;
80694;SDS011;70059;42.702;23.312;2023-08-08T06:14:16;15.35;;;10.10;;
80694;SDS011;70059;42.702;23.312;2023-08-08T06:16:42;12.50;;;11.18;;
80694;SDS011;70059;42.702;23.312;2023-08-08T06:19:08;10.40;;;9.70;;
80694;SDS011;70059;42.702;23.312;2023-08-08T06:21:35;11.05;;;10.05;;
80694;SDS011;70059;42.702;23.312;2023-08-08T06:24:01;11.10;;;10.30;;
80694;SDS011;70059;42.702;23.312;2023-08-08T06:26:26;10.73;;;9.75;;
80694;SDS011;70059;42.702;23.312;2023-08-08T06:28:52;10.93;;;10.18;;
80694;SDS011;70059;42.702;23.312;2023-08-08T06:31:18;10.93;;;10.13;;
80694;SDS011;70059;42.702;23.312;2023-08-08T06:33:44;10.52;;;9.73;;
80694;SDS011;70059;42.702;23.312;2023-08-08T06:36:10;11.00;;;9.90;;
80694;SDS011;70059;42.702;23.312;2023-08-08T06:38:36;10.43;;;9.73;;
80694;SDS011;70059;42.702;23.312;2023-08-08T06:41:02;10.13;;;9.43;;
80694;SDS011;70059;42.702;23.312;2023-08-08T06:43:28;11.07;;;10.13;;
80694;SDS011;70059;42.702;23.312;2023-08-08T06:45:55;11.10;;;10.30;;
80694;SDS011;70059;42.702;23.312;2023-08-08T06:48:21;10.68;;;9.98;;
80694;SDS011;70059;42.702;23.312;2023-08-08T06:50:46;10.45;;;9.43;;
80694;SDS011;70059;42.702;23.312;2023-08-08T06:53:12;9.77;;;8.95;;
80694;SDS011;70059;42.702;23.312;2023-08-08T06:55:38;9.43;;;8.70;;
80694;SDS011;70059;42.702;23.312;2023-08-08T06:58:03;11.95;;;9.70;;
80694;SDS011;70059;42.702;23.312;2023-08-08T07:00:29;9.57;;;8.70;;
80694;SDS011;70059;42.702;23.312;2023-08-08T07:02:55;9.40;;;8.80;;
80694;SDS011;70059;42.702;23.312;2023-08-08T07:05:20;9.35;;;8.65;;
80694;SDS011;70059;42.702;23.312;2023-08-08T07:07:48;9.07;;;8.38;;
80694;SDS011;70059;42.702;23.312;2023-08-08T07:10:17;9.45;;;8.85;;
80694;SDS011;70059;42.702;23.312;2023-08-08T07:12:44;9.25;;;8.55;;
80694;SDS011;70059;42.702;23.312;2023-08-08T07:15:10;9.45;;;8.70;;
80694;SDS011;70059;42.702;23.312;2023-08-08T07:17:36;8.95;;;8.35;;
80694;SDS011;70059;42.702;23.312;2023-08-08T07:20:03;9.00;;;8.50;;
80694;SDS011;70059;42.702;23.312;2023-08-08T07:22:31;10.00;;;9.25;;
80694;SDS011;70059;42.702;23.312;2023-08-08T07:24:57;9.10;;;8.48;;
80694;SDS011;70059;42.702;23.312;2023-08-08T07:27:23;10.45;;;9.05;;
80694;SDS011;70059;42.702;23.312;2023-08-08T07:29:49;8.75;;;8.25;;
80694;SDS011;70059;42.702;23.312;2023-08-08T07:32:15;9.13;;;8.50;;
80694;SDS011;70059;42.702;23.312;2023-08-08T07:34:40;10.32;;;9.35;;
80694;SDS011;70059;42.702;23.312;2023-08-08T07:37:06;9.20;;;8.60;;
80694;SDS011;70059;42.702;23.312;2023-08-08T07:39:32;9.23;;;8.52;;
80694;SDS011;70059;42.702;23.312;2023-08-08T07:41:57;9.20;;;8.40;;
80694;SDS011;70059;42.702;23.312;2023-08-08T07:44:23;8.27;;;7.78;;
80694;SDS011;70059;42.702;23.312;2023-08-08T07:46:48;8.50;;;7.80;;
80694;SDS011;70059;42.702;23.312;2023-08-08T07:49:14;8.60;;;8.10;;
80694;SDS011;70059;42.702;23.312;2023-08-08T07:51:40;8.48;;;7.88;;
80694;SDS011;70059;42.702;23.312;2023-08-08T07:54:06;8.18;;;7.68;;
80694;SDS011;70059;42.702;23.312;2023-08-08T07:56:33;8.40;;;7.80;;
80694;SDS011;70059;42.702;23.312;2023-08-08T07:59:00;8.43;;;7.82;;
80694;SDS011;70059;42.702;23.312;2023-08-08T08:01:26;8.63;;;8.02;;
80694;SDS011;70059;42.702;23.312;2023-08-08T08:03:52;8.68;;;8.07;;
80694;SDS011;70059;42.702;23.312;2023-08-08T08:06:19;8.63;;;8.05;;
80694;SDS011;70059;42.702;23.312;2023-08-08T08:08:44;8.48;;;7.90;;
80694;SDS011;70059;42.702;23.312;2023-08-08T08:11:10;8.65;;;8.00;;
80694;SDS011;70059;42.702;23.312;2023-08-08T08:13:37;11.73;;;8.50;;
80694;SDS011;70059;42.702;23.312;2023-08-08T08:16:03;8.90;;;8.20;;
80694;SDS011;70059;42.702;23.312;2023-08-08T08:18:29;8.60;;;8.00;;
80694;SDS011;70059;42.702;23.312;2023-08-08T08:20:55;8.80;;;8.05;;
80694;SDS011;70059;42.702;23.312;2023-08-08T08:23:21;8.68;;;8.18;;
80694;SDS011;70059;42.702;23.312;2023-08-08T08:25:47;9.50;;;8.80;;
80694;SDS011;70059;42.702;23.312;2023-08-08T08:28:13;11.50;;;10.70;;
80694;SDS011;70059;42.702;23.312;2023-08-08T08:30:40;9.90;;;9.20;;
80694;SDS011;70059;42.702;23.312;2023-08-08T08:33:06;10.00;;;9.40;;
80694;SDS011;70059;42.702;23.312;2023-08-08T08:35:33;8.75;;;8.15;;
80694;SDS011;70059;42.702;23.312;2023-08-08T08:37:59;9.35;;;8.85;;
80694;SDS011;70059;42.702;23.312;2023-08-08T08:40:25;8.57;;;8.07;;
80694;SDS011;70059;42.702;23.312;2023-08-08T08:42:53;9.65;;;8.73;;
80694;SDS011;70059;42.702;23.312;2023-08-08T08:45:19;9.73;;;8.98;;
80694;SDS011;70059;42.702;23.312;2023-08-08T08:47:49;9.88;;;8.98;;
80694;SDS011;70059;42.702;23.312;2023-08-08T08:50:16;9.50;;;8.75;;
80694;SDS011;70059;42.702;23.312;2023-08-08T08:52:43;9.90;;;9.10;;
80694;SDS011;70059;42.702;23.312;2023-08-08T08:55:09;11.23;;;9.40;;
80694;SDS011;70059;42.702;23.312;2023-08-08T08:57:35;10.23;;;9.52;;
80694;SDS011;70059;42.702;23.312;2023-08-08T09:00:02;9.20;;;8.60;;
80694;SDS011;70059;42.702;23.312;2023-08-08T09:02:31;9.98;;;9.13;;
80694;SDS011;70059;42.702;23.312;2023-08-08T09:04:56;9.23;;;8.73;;
80694;SDS011;70059;42.702;23.312;2023-08-08T09:07:24;8.88;;;8.18;;
80694;SDS011;70059;42.702;23.312;2023-08-08T09:09:52;9.60;;;9.00;;
80694;SDS011;70059;42.702;23.312;2023-08-08T09:12:18;9.52;;;8.93;;
80694;SDS011;70059;42.702;23.312;2023-08-08T09:14:44;9.40;;;8.80;;
80694;SDS011;70059;42.702;23.312;2023-08-08T09:17:14;10.00;;;9.07;;
80694;SDS011;70059;42.702;23.312;2023-08-08T09:19:43;11.02;;;10.30;;
80694;SDS011;70059;42.702;23.312;2023-08-08T09:22:10;10.30;;;9.70;;
80694;SDS011;70059;42.702;23.312;2023-08-08T09:24:38;9.60;;;9.00;;
80694;SDS011;70059;42.702;23.312;2023-08-08T09:27:07;9.47;;;8.77;;
80694;SDS011;70059;42.702;23.312;2023-08-08T09:29:34;9.73;;;9.02;;
80694;SDS011;70059;42.702;23.312;2023-08-08T09:32:04;9.45;;;8.95;;
80694;SDS011;70059;42.702;23.312;2023-08-08T09:34:30;9.40;;;8.70;;
80694;SDS011;70059;42.702;23.312;2023-08-08T09:36:56;9.18;;;8.65;;
80694;SDS011;70059;42.702;23.312;2023-08-08T09:39:22;9.30;;;8.70;;
80694;SDS011;70059;42.702;23.312;2023-08-08T09:41:49;9.45;;;8.82;;
80694;SDS011;70059;42.702;23.312;2023-08-08T09:44:15;10.00;;;9.10;;
80694;SDS011;70059;42.702;23.312;2023-08-08T09:46:41;9.40;;;8.70;;
80694;SDS011;70059;42.702;23.312;2023-08-08T09:49:08;9.80;;;9.18;;
80694;SDS011;70059;42.702;23.312;2023-08-08T09:51:38;9.70;;;8.90;;
80694;SDS011;70059;42.702;23.312;2023-08-08T09:54:04;8.95;;;8.15;;
80694;SDS011;70059;42.702;23.312;2023-08-08T09:56:33;9.43;;;8.93;;
80694;SDS011;70059;42.702;23.312;2023-08-08T09:59:00;10.00;;;9.20;;
80694;SDS011;70059;42.702;23.312;2023-08-08T10:01:26;9.63;;;8.88;;
80694;SDS011;70059;42.702;23.312;2023-08-08T10:03:52;8.52;;;7.97;;
80694;SDS011;70059;42.702;23.312;2023-08-08T10:06:18;9.63;;;8.82;;
80694;SDS011;70059;42.702;23.312;2023-08-08T10:08:44;10.02;;;9.43;;
80694;SDS011;70059;42.702;23.312;2023-08-08T10:11:10;9.13;;;8.43;;
80694;SDS011;70059;42.702;23.312;2023-08-08T10:13:46;10.90;;;10.20;;
80694;SDS011;70059;42.702;23.312;2023-08-08T10:16:14;10.15;;;9.20;;
80694;SDS011;70059;42.702;23.312;2023-08-08T10:18:54;9.63;;;8.95;;
80694;SDS011;70059;42.702;23.312;2023-08-08T10:21:24;9.25;;;8.75;;
80694;SDS011;70059;42.702;23.312;2023-08-08T10:24:00;9.57;;;8.90;;
80694;SDS011;70059;42.702;23.312;2023-08-08T10:26:30;9.60;;;9.00;;
80694;SDS011;70059;42.702;23.312;2023-08-08T10:28:56;10.75;;;9.85;;
80694;SDS011;70059;42.702;23.312;2023-08-08T10:31:23;8.88;;;8.27;;
80694;SDS011;70059;42.702;23.312;2023-08-08T10:34:00;10.10;;;9.50;;
80694;SDS011;70059;42.702;23.312;2023-08-08T10:36:42;9.05;;;8.38;;
80694;SDS011;70059;42.702;23.312;2023-08-08T10:39:10;9.82;;;8.90;;
80694;SDS011;70059;42.702;23.312;2023-08-08T10:41:45;9.68;;;8.88;;
80694;SDS011;70059;42.702;23.312;2023-08-08T10:44:21;9.82;;;9.18;;
80694;SDS011;70059;42.702;23.312;2023-08-08T10:46:50;8.77;;;8.27;;
80694;SDS011;70059;42.702;23.312;2023-08-08T10:49:17;8.80;;;8.10;;
80694;SDS011;70059;42.702;23.312;2023-08-08T10:51:44;10.98;;;10.00;;
80694;SDS011;70059;42.702;23.312;2023-08-08T10:54:13;9.38;;;8.75;;
80694;SDS011;70059;42.702;23.312;2023-08-08T10:56:40;9.30;;;8.70;;
80694;SDS011;70059;42.702;23.312;2023-08-08T10:59:16;9.15;;;8.65;;
80694;SDS011;70059;42.702;23.312;2023-08-08T11:01:47;11.38;;;10.48;;
80694;SDS011;70059;42.702;23.312;2023-08-08T11:04:15;9.68;;;8.98;;
80694;SDS011;70059;42.702;23.312;2023-08-08T11:06:42;8.98;;;8.27;;
80694;SDS011;70059;42.702;23.312;2023-08-08T11:09:09;9.52;;;8.93;;
80694;SDS011;70059;42.702;23.312;2023-08-08T11:11:35;9.23;;;8.60;;
80694;SDS011;70059;42.702;23.312;2023-08-08T11:14:09;9.40;;;8.80;;
80694;SDS011;70059;42.702;23.312;2023-08-08T11:16:36;9.32;;;8.70;;
80694;SDS011;70059;42.702;23.312;2023-08-08T11:19:02;8.82;;;8.32;;
80694;SDS011;70059;42.702;23.312;2023-08-08T11:21:28;9.38;;;8.63;;
80694;SDS011;70059;42.702;23.312;2023-08-08T11:23:54;9.05;;;8.45;;
80694;SDS011;70059;42.702;23.312;2023-08-08T11:26:20;8.70;;;8.20;;
80694;SDS011;70059;42.702;23.312;2023-08-08T11:28:52;9.25;;;8.55;;
80694;SDS011;70059;42.702;23.312;2023-08-08T11:31:22;9.07;;;8.57;;
80694;SDS011;70059;42.702;23.312;2023-08-08T11:33:49;9.30;;;8.80;;
80694;SDS011;70059;42.702;23.312;2023-08-08T11:36:16;8.95;;;8.35;;
80694;SDS011;70059;42.702;23.312;2023-08-08T11:38:41;8.90;;;8.30;;
80694;SDS011;70059;42.702;23.312;2023-08-08T11:41:12;9.57;;;8.98;;
80694;SDS011;70059;42.702;23.312;2023-08-08T11:43:42;8.95;;;8.38;;
80694;SDS011;70059;42.702;23.312;2023-08-08T11:46:09;8.43;;;7.93;;
80694;SDS011;70059;42.702;23.312;2023-08-08T11:48:37;9.98;;;9.27;;
80694;SDS011;70059;42.702;23.312;2023-08-08T11:51:07;9.18;;;8.68;;
80694;SDS011;70059;42.702;23.312;2023-08-08T11:53:34;9.20;;;8.70;;
80694;SDS011;70059;42.702;23.312;2023-08-08T11:56:00;8.68;;;8.00;;
80694;SDS011;70059;42.702;23.312;2023-08-08T11:58:28;9.65;;;9.05;;
80694;SDS011;70059;42.702;23.312;2023-08-08T12:00:56;9.88;;;8.93;;
80694;SDS011;70059;42.702;23.312;2023-08-08T12:03:22;9.10;;;8.50;;
80694;SDS011;70059;42.702;23.312;2023-08-08T12:05:50;9.13;;;8.52;;
80694;SDS011;70059;42.702;23.312;2023-08-08T12:08:20;8.68;;;8.27;;
80694;SDS011;70059;42.702;23.312;2023-08-08T12:10:52;9.07;;;8.57;;
80694;SDS011;70059;42.702;23.312;2023-08-08T12:13:23;11.60;;;9.23;;
80694;SDS011;70059;42.702;23.312;2023-08-08T12:15:52;10.57;;;9.98;;
80694;SDS011;70059;42.702;23.312;2023-08-08T12:18:31;10.32;;;9.52;;
80694;SDS011;70059;42.702;23.312;2023-08-08T12:20:57;8.87;;;8.27;;
80694;SDS011;70059;42.702;23.312;2023-08-08T12:23:25;9.70;;;8.90;;
80694;SDS011;70059;42.702;23.312;2023-08-08T12:25:54;10.07;;;9.48;;
80694;SDS011;70059;42.702;23.312;2023-08-08T12:28:21;9.27;;;8.73;;
80694;SDS011;70059;42.702;23.312;2023-08-08T12:30:47;9.90;;;9.30;;
80694;SDS011;70059;42.702;23.312;2023-08-08T12:33:13;8.43;;;7.90;;
80694;SDS011;70059;42.702;23.312;2023-08-08T12:35:38;8.38;;;7.88;;
80694;SDS011;70059;42.702;23.312;2023-08-08T12:38:04;8.82;;;8.27;;
80694;SDS011;70059;42.702;23.312;2023-08-08T12:40:30;8.57;;;8.02;;
80694;SDS011;70059;42.702;23.312;2023-08-08T12:42:56;9.90;;;8.95;;
80694;SDS011;70059;42.702;23.312;2023-08-08T12:45:22;10.10;;;9.38;;
80694;SDS011;70059;42.702;23.312;2023-08-08T12:47:48;8.70;;;8.18;;
80694;SDS011;70059;42.702;23.312;2023-08-08T12:50:13;9.20;;;8.48;;
80694;SDS011;70059;42.702;23.312;2023-08-08T12:52:39;9.07;;;8.32;;
80694;SDS011;70059;42.702;23.312;2023-08-08T12:55:05;9.15;;;8.50;;
80694;SDS011;70059;42.702;23.312;2023-08-08T12:57:32;8.73;;;8.23;;
80694;SDS011;70059;42.702;23.312;2023-08-08T12:59:58;8.95;;;8.40;;
80694;SDS011;70059;42.702;23.312;2023-08-08T13:02:23;8.50;;;8.05;;
80694;SDS011;70059;42.702;23.312;2023-08-08T13:04:49;10.52;;;9.43;;
80694;SDS011;70059;42.702;23.312;2023-08-08T13:07:15;9.10;;;8.50;;
80694;SDS011;70059;42.702;23.312;2023-08-08T13:09:41;8.20;;;7.70;;
80694;SDS011;70059;42.702;23.312;2023-08-08T13:12:07;8.60;;;8.05;;
80694;SDS011;70059;42.702;23.312;2023-08-08T13:14:33;8.80;;;8.30;;
80694;SDS011;70059;42.702;23.312;2023-08-08T13:16:59;9.38;;;8.52;;
80694;SDS011;70059;42.702;23.312;2023-08-08T13:19:25;9.27;;;8.68;;
80694;SDS011;70059;42.702;23.312;2023-08-08T13:21:51;8.57;;;8.07;;
80694;SDS011;70059;42.702;23.312;2023-08-08T13:24:17;8.35;;;7.80;;
80694;SDS011;70059;42.702;23.312;2023-08-08T13:26:43;8.90;;;8.30;;
80694;SDS011;70059;42.702;23.312;2023-08-08T13:29:09;8.60;;;8.05;;
80694;SDS011;70059;42.702;23.312;2023-08-08T13:31:34;18.90;;;17.23;;
80694;SDS011;70059;42.702;23.312;2023-08-08T13:34:00;10.95;;;10.10;;
80694;SDS011;70059;42.702;23.312;2023-08-08T13:36:26;9.98;;;9.18;;
80694;SDS011;70059;42.702;23.312;2023-08-08T13:38:51;10.20;;;9.48;;
80694;SDS011;70059;42.702;23.312;2023-08-08T13:41:17;8.57;;;7.95;;
80694;SDS011;70059;42.702;23.312;2023-08-08T13:43:43;8.77;;;8.27;;
80694;SDS011;70059;42.702;23.312;2023-08-08T13:46:08;16.38;;;15.00;;
80694;SDS011;70059;42.702;23.312;2023-08-08T13:48:35;9.77;;;9.10;;
80694;SDS011;70059;42.702;23.312;2023-08-08T13:51:01;9.75;;;8.95;;
80694;SDS011;70059;42.702;23.312;2023-08-08T13:53:28;9.40;;;8.75;;
80694;SDS011;70059;42.702;23.312;2023-08-08T13:55:57;13.93;;;8.48;;
80694;SDS011;70059;42.702;23.312;2023-08-08T13:58:23;9.25;;;8.45;;
80694;SDS011;70059;42.702;23.312;2023-08-08T14:00:49;8.35;;;7.75;;
80694;SDS011;70059;42.702;23.312;2023-08-08T14:03:15;9.52;;;7.32;;
80694;SDS011;70059;42.702;23.312;2023-08-08T14:05:41;8.55;;;7.97;;
80694;SDS011;70059;42.702;23.312;2023-08-08T14:08:06;9.00;;;8.35;;
80694;SDS011;70059;42.702;23.312;2023-08-08T14:10:33;8.60;;;7.97;;
80694;SDS011;70059;42.702;23.312;2023-08-08T14:12:59;8.77;;;8.15;;
80694;SDS011;70059;42.702;23.312;2023-08-08T14:15:24;9.80;;;8.13;;
80694;SDS011;70059;42.702;23.312;2023-08-08T14:17:50;8.85;;;8.18;;
80694;SDS011;70059;42.702;23.312;2023-08-08T14:20:16;8.05;;;7.55;;
80694;SDS011;70059;42.702;23.312;2023-08-08T14:22:44;8.63;;;8.02;;
80694;SDS011;70059;42.702;23.312;2023-08-08T14:25:11;9.30;;;8.70;;
80694;SDS011;70059;42.702;23.312;2023-08-08T14:27:37;8.73;;;8.13;;
80694;SDS011;70059;42.702;23.312;2023-08-08T14:30:03;8.68;;;7.93;;